Time;durP1;ratioP1;P1;durP2;ratioP2;P2;SDS_P1;SDS_P2;PMS_P1;PMS_P2;Temp;Humidity;BMP_temperature;BMP_pressure;BME280_temperature;BME280_humidity;BME280_pressure;Samples;Min_cycle;Max_cycle;Signal;HPM_P1;HPM_P2
2021/05/10 00:01:29;;;;;;;3.63;2.07;;;19.80;72.10;;;;;;5074792;28;20447;-57
2021/05/10 00:03:56;;;;;;;3.30;2.00;;;19.90;71.70;;;;;;5074025;28;20456;-57
2021/05/10 00:06:22;;;;;;;2.50;2.30;;;19.90;72.00;;;;;;5073830;28;20450;-57
2021/05/10 00:08:49;;;;;;;4.90;2.20;;;19.90;72.40;;;;;;5073961;28;21103;-57
2021/05/10 00:11:15;;;;;;;3.10;2.13;;;19.80;71.30;;;;;;5073926;28;21001;-57
2021/05/10 00:13:45;;;;;;;2.30;1.80;;;20.10;69.70;;;;;;5063960;28;20470;-57
2021/05/10 00:16:12;;;;;;;2.20;2.03;;;20.20;70.10;;;;;;5101086;22;20624;-50
2021/05/10 00:18:39;;;;;;;4.37;2.47;;;20.10;70.10;;;;;;5093710;28;20446;-50
2021/05/10 00:21:05;;;;;;;4.63;2.37;;;20.10;71.00;;;;;;5093653;28;20449;-50
2021/05/10 00:23:32;;;;;;;5.00;2.27;;;20.20;70.60;;;;;;5094195;28;20872;-50
2021/05/10 00:25:59;;;;;;;6.73;4.93;;;20.30;70.70;;;;;;5093242;28;20472;-50
2021/05/10 00:28:25;;;;;;;2.67;2.20;;;20.30;70.50;;;;;;5073706;28;20446;-51
2021/05/10 00:30:52;;;;;;;3.23;2.30;;;20.20;71.70;;;;;;5073414;28;20451;-50
2021/05/10 00:33:18;;;;;;;2.20;2.00;;;20.20;71.80;;;;;;5071509;28;20972;-51
2021/05/10 00:35:46;;;;;;;2.47;2.27;;;20.20;71.20;;;;;;5072728;28;20481;-51
2021/05/10 00:38:12;;;;;;;2.17;2.07;;;20.30;71.20;;;;;;5073484;28;20500;-51
2021/05/10 00:40:39;;;;;;;6.43;2.60;;;20.30;72.30;;;;;;5073471;28;20450;-51
2021/05/10 00:43:05;;;;;;;2.00;1.80;;;20.40;71.50;;;;;;5073330;28;20451;-51
2021/05/10 00:45:33;;;;;;;2.30;2.10;;;20.50;71.60;;;;;;5072840;28;20453;-51
2021/05/10 00:48:00;;;;;;;2.63;1.93;;;20.60;69.20;;;;;;5073157;28;20474;-51
2021/05/10 00:50:26;;;;;;;1.57;1.43;;;20.70;69.00;;;;;;5073380;28;20446;-51
2021/05/10 00:52:53;;;;;;;5.87;2.07;;;20.90;69.10;;;;;;5073056;28;20453;-51
2021/05/10 00:55:20;;;;;;;1.93;1.70;;;20.90;70.20;;;;;;5073096;28;20890;-51
2021/05/10 00:57:52;;;;;;;6.63;2.10;;;21.00;68.70;;;;;;5073015;28;20470;-51
2021/05/10 01:00:20;;;;;;;8.27;2.07;;;21.10;68.60;;;;;;5073318;28;20518;-51
2021/05/10 01:02:47;;;;;;;3.43;1.93;;;21.20;69.40;;;;;;5072663;28;20443;-51
2021/05/10 01:05:15;;;;;;;5.60;1.87;;;21.10;69.80;;;;;;5072647;28;20451;-51
2021/05/10 01:07:43;;;;;;;3.40;2.00;;;21.10;69.50;;;;;;5064064;28;20852;-51
2021/05/10 01:10:14;;;;;;;5.27;2.10;;;21.20;69.00;;;;;;5062649;28;20484;-51
2021/05/10 01:12:41;;;;;;;3.83;2.07;;;21.20;70.00;;;;;;5072842;28;20940;-51
2021/05/10 01:15:10;;;;;;;2.07;1.70;;;21.10;68.90;;;;;;5072176;28;20479;-50
2021/05/10 01:17:38;;;;;;;2.17;1.70;;;21.20;69.90;;;;;;5071962;28;20482;-51
2021/05/10 01:20:06;;;;;;;7.43;2.57;;;21.20;69.30;;;;;;5072538;28;20447;-51
2021/05/10 01:22:41;;;;;;;1.67;1.57;;;21.30;69.50;;;;;;5072594;28;20446;-51
2021/05/10 01:25:10;;;;;;;2.07;1.93;;;21.10;70.00;;;;;;5062804;28;20448;-51
2021/05/10 01:27:37;;;;;;;3.50;2.00;;;21.20;69.60;;;;;;5052274;28;20468;-51
2021/05/10 01:30:06;;;;;;;2.03;1.93;;;21.20;69.70;;;;;;5052354;28;20828;-51
2021/05/10 01:32:33;;;;;;;4.40;2.20;;;21.20;69.60;;;;;;5070130;28;20496;-51
2021/05/10 01:34:59;;;;;;;2.73;1.83;;;21.20;68.80;;;;;;5071954;28;20454;-51
2021/05/10 01:37:26;;;;;;;7.97;2.10;;;21.20;69.20;;;;;;5072103;28;20516;-51
2021/05/10 01:39:54;;;;;;;3.77;2.10;;;21.20;69.30;;;;;;5072434;28;20450;-51
2021/05/10 01:42:20;;;;;;;1.93;1.83;;;21.20;68.10;;;;;;5072351;28;20504;-51
2021/05/10 01:44:46;;;;;;;2.40;2.20;;;21.20;69.20;;;;;;5071908;28;20940;-51
2021/05/10 01:47:13;;;;;;;3.70;1.90;;;21.30;69.30;;;;;;5072120;28;20463;-51
2021/05/10 01:49:43;;;;;;;2.30;1.90;;;21.10;70.10;;;;;;5071224;28;20455;-51
2021/05/10 01:52:09;;;;;;;2.70;2.03;;;21.10;69.70;;;;;;5071598;28;20462;-51
2021/05/10 01:54:36;;;;;;;1.97;1.83;;;21.10;70.00;;;;;;5070704;28;20454;-51
2021/05/10 01:57:04;;;;;;;1.80;1.70;;;21.20;70.10;;;;;;5072064;28;20486;-51
2021/05/10 01:59:33;;;;;;;2.40;2.20;;;21.20;70.50;;;;;;5067534;28;20452;-51
2021/05/10 02:02:00;;;;;;;1.90;1.80;;;21.10;70.20;;;;;;5052016;28;20443;-51
2021/05/10 02:04:26;;;;;;;1.67;1.57;;;21.00;70.90;;;;;;5059965;28;20442;-51
2021/05/10 02:07:01;;;;;;;3.93;2.00;;;21.00;70.30;;;;;;5071443;28;20465;-51
2021/05/10 02:09:27;;;;;;;1.90;1.80;;;21.00;70.70;;;;;;5072100;28;20447;-51
2021/05/10 02:11:54;;;;;;;2.27;1.80;;;21.00;70.60;;;;;;5072021;28;20450;-51
2021/05/10 02:14:21;;;;;;;3.57;2.00;;;21.10;70.70;;;;;;5072139;28;20451;-51
2021/05/10 02:16:47;;;;;;;1.97;1.87;;;21.10;71.10;;;;;;5071503;28;20932;-51
2021/05/10 02:19:14;;;;;;;3.23;2.13;;;21.00;71.30;;;;;;5071567;28;20447;-51
2021/05/10 02:21:40;;;;;;;2.43;2.10;;;21.00;71.10;;;;;;5070709;28;20447;-51
2021/05/10 02:24:08;;;;;;;2.13;1.97;;;20.90;70.80;;;;;;5071557;28;20449;-52
2021/05/10 02:26:35;;;;;;;2.40;2.20;;;20.80;72.60;;;;;;5071442;28;20463;-51
2021/05/10 02:29:02;;;;;;;3.17;2.27;;;20.60;73.10;;;;;;5071620;28;20454;-51
2021/05/10 02:31:30;;;;;;;2.03;1.93;;;20.60;73.20;;;;;;5071478;28;20533;-51
2021/05/10 02:33:56;;;;;;;2.83;2.43;;;20.50;73.20;;;;;;5071780;28;20461;-51
2021/05/10 02:36:23;;;;;;;2.53;2.10;;;20.50;72.70;;;;;;5067122;28;20483;-52
2021/05/10 02:38:49;;;;;;;1.80;1.70;;;20.50;72.80;;;;;;5051577;28;20455;-52
2021/05/10 02:41:16;;;;;;;4.47;1.77;;;20.50;73.20;;;;;;5072494;28;20450;-51
2021/05/10 02:43:42;;;;;;;1.70;1.60;;;20.60;71.70;;;;;;5075509;28;20462;-51
2021/05/10 02:46:09;;;;;;;2.53;2.00;;;20.80;70.60;;;;;;5075196;28;20450;-51
2021/05/10 02:48:36;;;;;;;1.80;1.50;;;20.90;71.40;;;;;;5075767;28;20473;-51
2021/05/10 02:51:03;;;;;;;1.73;1.63;;;20.90;71.90;;;;;;5075467;28;20499;-51
2021/05/10 02:53:29;;;;;;;2.00;1.90;;;20.80;71.80;;;;;;5075228;28;20975;-51
2021/05/10 02:55:56;;;;;;;4.87;2.70;;;20.80;72.60;;;;;;5074799;28;20532;-50
2021/05/10 02:58:23;;;;;;;2.77;1.80;;;20.60;73.10;;;;;;5074871;28;20450;-51
2021/05/10 03:00:49;;;;;;;1.90;1.50;;;20.50;73.20;;;;;;5074945;28;20878;-51
2021/05/10 03:03:16;;;;;;;2.03;1.93;;;20.60;72.40;;;;;;5074833;28;20866;-51
2021/05/10 03:05:43;;;;;;;2.23;1.63;;;20.60;73.10;;;;;;5075150;28;20815;-51
2021/05/10 03:08:10;;;;;;;1.97;1.80;;;20.50;73.70;;;;;;5075031;28;20848;-51
2021/05/10 03:10:36;;;;;;;1.73;1.40;;;20.50;73.70;;;;;;5075239;28;20442;-51
2021/05/10 03:13:03;;;;;;;1.50;1.33;;;20.50;73.50;;;;;;5075318;28;20447;-51
2021/05/10 03:15:30;;;;;;;6.10;2.00;;;20.50;73.10;;;;;;5073912;28;20478;-51
2021/05/10 03:17:56;;;;;;;2.27;1.53;;;20.50;73.50;;;;;;5074833;28;20481;-52
2021/05/10 03:20:24;;;;;;;3.53;1.53;;;20.40;73.70;;;;;;5074749;28;20446;-52
2021/05/10 03:22:52;;;;;;;2.20;1.70;;;20.40;74.40;;;;;;5074947;28;20451;-52
2021/05/10 03:25:20;;;;;;;1.50;1.40;;;20.30;74.20;;;;;;5074548;28;20496;-52
2021/05/10 03:27:47;;;;;;;4.13;1.40;;;20.30;73.90;;;;;;5074665;28;20471;-52
2021/05/10 03:30:15;;;;;;;2.30;1.43;;;20.30;73.30;;;;;;5074613;28;20450;-51
2021/05/10 03:32:43;;;;;;;1.63;1.53;;;20.50;73.30;;;;;;5074568;28;20462;-52
2021/05/10 03:35:11;;;;;;;2.80;1.70;;;20.40;72.50;;;;;;5074527;28;20469;-52
2021/05/10 03:37:38;;;;;;;3.93;1.70;;;20.50;72.40;;;;;;5074568;28;20520;-52
2021/05/10 03:40:07;;;;;;;1.50;1.40;;;20.50;72.50;;;;;;5074547;28;20525;-52
2021/05/10 03:42:33;;;;;;;1.63;1.37;;;20.60;71.90;;;;;;5074674;28;20871;-52
2021/05/10 03:45:00;;;;;;;1.90;1.70;;;20.50;73.00;;;;;;5074166;28;20908;-52
2021/05/10 03:47:39;;;;;;;1.70;1.60;;;20.40;73.10;;;;;;5074098;28;20475;-52
2021/05/10 03:50:07;;;;;;;5.73;1.60;;;20.50;72.20;;;;;;5073116;28;20462;-52
2021/05/10 03:52:33;;;;;;;1.47;1.33;;;20.60;71.00;;;;;;5073885;28;20508;-52
2021/05/10 03:55:00;;;;;;;2.13;1.30;;;20.80;71.10;;;;;;5073419;28;20454;-52
2021/05/10 03:57:27;;;;;;;1.50;1.40;;;20.70;71.30;;;;;;5074149;28;20471;-52
2021/05/10 03:59:54;;;;;;;2.07;1.60;;;20.80;71.00;;;;;;5074222;28;20443;-52
2021/05/10 04:02:21;;;;;;;1.60;1.50;;;20.80;71.40;;;;;;5074261;28;20443;-52
2021/05/10 04:04:51;;;;;;;3.63;1.33;;;20.80;71.20;;;;;;5073841;28;20458;-51
2021/05/10 04:07:36;;;;;;;2.33;1.80;;;20.70;70.80;;;;;;5073255;28;21075;-52
2021/05/10 04:15:46;;;;;;;1.83;1.73;;;21.00;69.40;;;;;;5064606;28;20479;-52
2021/05/10 04:18:13;;;;;;;2.10;1.40;;;20.90;70.00;;;;;;5073785;28;20501;-51
2021/05/10 04:20:39;;;;;;;3.13;1.37;;;21.00;69.60;;;;;;5074087;28;20508;-51
2021/05/10 04:23:06;;;;;;;1.30;1.20;;;20.90;70.80;;;;;;5073620;28;20450;-51
2021/05/10 04:25:32;;;;;;;1.50;1.40;;;21.00;70.20;;;;;;5073537;28;20447;-52
2021/05/10 04:27:59;;;;;;;2.40;1.53;;;20.90;70.40;;;;;;5073695;28;20999;-51
2021/05/10 04:30:26;;;;;;;1.33;1.20;;;20.90;70.70;;;;;;5073563;28;21019;-51
2021/05/10 04:32:57;;;;;;;1.63;1.53;;;20.90;69.80;;;;;;5073864;28;20525;-52
2021/05/10 04:35:24;;;;;;;6.40;1.87;;;20.90;70.30;;;;;;5073315;28;20486;-52
2021/05/10 04:37:50;;;;;;;1.57;1.47;;;20.80;71.00;;;;;;5066904;28;20470;-51
2021/05/10 04:40:18;;;;;;;3.13;1.60;;;20.90;71.40;;;;;;5055381;28;20492;-51
2021/05/10 04:42:44;;;;;;;1.57;1.00;;;20.90;70.80;;;;;;5073419;28;20446;-51
2021/05/10 04:45:12;;;;;;;1.73;1.63;;;21.00;71.50;;;;;;5073373;28;20453;-51
2021/05/10 04:47:41;;;;;;;2.83;1.53;;;21.10;70.50;;;;;;5073285;28;21000;-51
2021/05/10 04:50:10;;;;;;;2.03;1.37;;;21.30;69.90;;;;;;5073377;28;20829;-52
2021/05/10 04:52:37;;;;;;;1.83;1.50;;;21.50;70.10;;;;;;5073263;28;20446;-52
2021/05/10 04:55:04;;;;;;;1.63;1.43;;;21.50;71.00;;;;;;5071103;28;20463;-51
2021/05/10 04:57:31;;;;;;;1.53;1.20;;;21.50;69.90;;;;;;5070388;28;20475;-52
2021/05/10 04:59:57;;;;;;;3.73;1.43;;;21.60;69.30;;;;;;5073041;28;20455;-52
2021/05/10 05:02:24;;;;;;;6.27;1.70;;;21.60;68.70;;;;;;5072198;28;20503;-52
2021/05/10 05:04:52;;;;;;;1.40;1.30;;;21.70;68.90;;;;;;5072957;28;20453;-51
2021/05/10 05:07:18;;;;;;;1.83;1.50;;;21.70;68.70;;;;;;5072891;28;21062;-51
2021/05/10 05:09:45;;;;;;;2.13;1.90;;;21.80;69.00;;;;;;5070834;28;20446;-51
2021/05/10 05:12:12;;;;;;;3.10;1.40;;;21.80;69.00;;;;;;5064160;28;20439;-51
2021/05/10 05:14:41;;;;;;;1.83;1.60;;;22.00;68.30;;;;;;5072670;28;21122;-52
2021/05/10 05:17:08;;;;;;;2.60;1.40;;;22.30;68.40;;;;;;5071245;28;20491;-51
2021/05/10 05:19:35;;;;;;;2.03;1.20;;;22.40;68.10;;;;;;5071933;28;20470;-51
2021/05/10 05:22:03;;;;;;;1.97;1.77;;;22.40;66.90;;;;;;5084298;28;20450;-52
2021/05/10 05:24:30;;;;;;;2.30;1.60;;;22.40;67.40;;;;;;5073760;28;20876;-51
2021/05/10 05:26:57;;;;;;;3.27;1.47;;;22.40;67.60;;;;;;5071993;28;20467;-52
2021/05/10 05:29:23;;;;;;;2.70;1.43;;;22.40;67.90;;;;;;5072361;28;20972;-52
2021/05/10 05:31:50;;;;;;;1.47;1.37;;;22.40;68.70;;;;;;5072486;28;20455;-52
2021/05/10 05:34:18;;;;;;;2.50;1.47;;;22.30;67.80;;;;;;5072130;28;20940;-52
2021/05/10 05:36:44;;;;;;;3.23;1.43;;;22.10;68.80;;;;;;5067747;28;21019;-52
2021/05/10 05:39:12;;;;;;;3.70;1.57;;;21.90;68.60;;;;;;5073769;28;20441;-52
2021/05/10 05:41:39;;;;;;;3.83;1.60;;;21.90;68.30;;;;;;5071888;28;20459;-51
2021/05/10 05:44:06;;;;;;;2.90;1.60;;;21.80;68.70;;;;;;5071679;28;21176;-51
2021/05/10 05:46:37;;;;;;;4.00;1.67;;;21.80;68.50;;;;;;5071927;28;20509;-52
2021/05/10 05:49:05;;;;;;;2.50;1.40;;;22.00;68.60;;;;;;5067092;28;21030;-52
2021/05/10 05:51:32;;;;;;;1.27;1.17;;;22.40;67.70;;;;;;5062141;28;20546;-52
2021/05/10 05:53:58;;;;;;;1.47;1.17;;;23.10;66.70;;;;;;5065829;28;20892;-52
2021/05/10 05:56:27;;;;;;;4.10;2.03;;;23.60;65.90;;;;;;5062871;28;20961;-53
2021/05/10 05:58:53;;;;;;;1.80;1.27;;;24.00;65.70;;;;;;5065737;28;20467;-52
2021/05/10 06:01:20;;;;;;;2.87;1.30;;;24.60;64.30;;;;;;5062868;28;21282;-52
2021/05/10 06:03:47;;;;;;;4.57;1.40;;;24.80;64.30;;;;;;5063624;28;20962;-52
2021/05/10 06:06:13;;;;;;;8.70;1.47;;;25.00;64.90;;;;;;5062722;28;20983;-52
2021/05/10 06:08:40;;;;;;;1.87;1.50;;;25.20;63.10;;;;;;5062762;28;20459;-52
2021/05/10 06:11:08;;;;;;;2.70;1.63;;;25.30;62.60;;;;;;5063566;28;20458;-52
2021/05/10 06:13:36;;;;;;;1.50;1.40;;;25.40;65.10;;;;;;5062962;28;20474;-53
2021/05/10 06:16:03;;;;;;;1.87;1.50;;;25.50;62.80;;;;;;5062857;28;20475;-53
2021/05/10 06:18:29;;;;;;;3.83;1.40;;;25.90;62.00;;;;;;5063122;28;20821;-53
2021/05/10 06:20:56;;;;;;;4.43;1.47;;;26.00;63.10;;;;;;5063029;28;20462;-53
2021/05/10 06:23:22;;;;;;;2.60;1.43;;;26.00;60.70;;;;;;5062469;28;20455;-53
2021/05/10 06:25:49;;;;;;;7.80;1.83;;;26.00;61.90;;;;;;5086469;22;21030;-56
2021/05/10 06:28:15;;;;;;;3.30;1.43;;;25.70;63.10;;;;;;5061470;28;20462;-56
2021/05/10 06:30:43;;;;;;;3.03;1.50;;;25.60;61.90;;;;;;5061893;28;21191;-56
2021/05/10 06:33:09;;;;;;;1.43;1.30;;;25.10;63.20;;;;;;5063632;28;20516;-56
2021/05/10 06:35:36;;;;;;;4.80;2.10;;;24.60;64.30;;;;;;5063399;28;20486;-56
2021/05/10 06:38:02;;;;;;;2.37;1.43;;;24.00;66.90;;;;;;5062002;28;20459;-56
2021/05/10 06:40:29;;;;;;;2.50;1.93;;;23.80;68.20;;;;;;5061526;28;20512;-56
2021/05/10 06:42:55;;;;;;;1.60;1.50;;;23.70;65.10;;;;;;5063153;28;21059;-56
2021/05/10 06:45:22;;;;;;;4.07;1.63;;;23.70;66.00;;;;;;5063357;28;20488;-56
2021/05/10 06:47:51;;;;;;;2.87;1.20;;;23.50;67.40;;;;;;5062193;28;20467;-56
2021/05/10 06:50:17;;;;;;;3.33;1.33;;;23.70;65.30;;;;;;5063736;28;20459;-56
2021/05/10 06:52:44;;;;;;;3.87;1.13;;;23.50;65.60;;;;;;5061345;28;20512;-56
2021/05/10 06:55:11;;;;;;;3.23;1.27;;;23.70;65.70;;;;;;5059815;28;20490;-56
2021/05/10 06:57:37;;;;;;;3.20;1.40;;;24.00;65.50;;;;;;5060659;28;20483;-56
2021/05/10 07:00:05;;;;;;;2.80;1.30;;;24.50;65.40;;;;;;5061499;28;20475;-57
2021/05/10 07:02:31;;;;;;;2.50;1.47;;;24.90;66.20;;;;;;5062385;28;20512;-56
2021/05/10 07:04:59;;;;;;;2.67;1.40;;;24.90;65.20;;;;;;5062374;28;20512;-56
2021/05/10 07:07:25;;;;;;;2.73;1.40;;;24.90;65.00;;;;;;5059253;28;20456;-56
2021/05/10 07:09:52;;;;;;;1.40;1.30;;;24.90;66.00;;;;;;5061612;28;20458;-56
2021/05/10 07:12:19;;;;;;;7.77;1.67;;;24.70;67.80;;;;;;5060089;28;20837;-56
2021/05/10 07:14:45;;;;;;;2.60;1.57;;;25.00;66.30;;;;;;5061224;28;20486;-56
2021/05/10 07:17:12;;;;;;;3.53;1.20;;;25.40;65.10;;;;;;5061206;28;20486;-56
2021/05/10 07:19:41;;;;;;;4.27;1.40;;;25.80;65.10;;;;;;5060834;28;20458;-56
2021/05/10 07:22:08;;;;;;;2.10;1.80;;;26.50;64.80;;;;;;5059807;28;20836;-56
2021/05/10 07:24:35;;;;;;;4.77;2.10;;;27.20;63.30;;;;;;5059606;28;20478;-56
2021/05/10 07:27:01;;;;;;;2.23;1.20;;;27.10;62.00;;;;;;5063591;28;20956;-56
2021/05/10 07:29:28;;;;;;;5.30;1.40;;;27.10;60.90;;;;;;5064065;28;20459;-56
2021/05/10 07:31:54;;;;;;;3.77;2.03;;;27.00;61.60;;;;;;5064878;28;20951;-57
2021/05/10 07:34:22;;;;;;;2.80;1.40;;;26.80;62.10;;;;;;5066445;28;20458;-57
2021/05/10 07:36:49;;;;;;;4.53;1.60;;;26.60;61.00;;;;;;5064157;28;20518;-57
2021/05/10 07:39:16;;;;;;;5.70;1.50;;;26.40;61.90;;;;;;5064672;28;20465;-56
2021/05/10 07:41:43;;;;;;;5.43;1.67;;;26.40;63.40;;;;;;5066143;28;20515;-56
2021/05/10 07:44:09;;;;;;;4.90;1.90;;;26.40;64.10;;;;;;5064483;28;20454;-56
2021/05/10 07:46:36;;;;;;;3.43;1.80;;;26.70;63.90;;;;;;5064231;28;20221;-57
2021/05/10 07:49:03;;;;;;;3.10;1.80;;;26.60;63.50;;;;;;5066098;28;20466;-56
2021/05/10 07:51:29;;;;;;;3.20;1.40;;;26.60;65.20;;;;;;5065457;28;20459;-56
2021/05/10 07:53:57;;;;;;;3.03;1.70;;;26.60;62.70;;;;;;5064402;28;20485;-56
2021/05/10 07:56:24;;;;;;;2.37;1.63;;;26.30;61.60;;;;;;5063003;28;20517;-56
2021/05/10 07:58:53;;;;;;;6.47;2.00;;;26.20;64.00;;;;;;5064717;28;20821;-56
2021/05/10 08:01:20;;;;;;;3.77;2.13;;;26.20;62.80;;;;;;5062295;28;20463;-56
2021/05/10 08:03:48;;;;;;;4.97;1.60;;;26.20;61.60;;;;;;5066910;28;20496;-56
2021/05/10 08:06:14;;;;;;;1.50;1.40;;;26.20;63.30;;;;;;5070641;28;20864;-56
2021/05/10 08:08:41;;;;;;;3.13;1.70;;;26.30;63.40;;;;;;5073265;28;20446;-56
2021/05/10 08:11:07;;;;;;;1.50;1.40;;;26.50;63.90;;;;;;5064714;28;20468;-56
2021/05/10 08:13:35;;;;;;;3.80;1.60;;;26.80;61.50;;;;;;5065887;28;20496;-56
2021/05/10 08:16:01;;;;;;;3.23;1.60;;;26.50;60.80;;;;;;5060429;28;20484;-56
2021/05/10 08:18:29;;;;;;;2.60;1.83;;;25.80;63.40;;;;;;5072632;28;20500;-57
2021/05/10 08:20:57;;;;;;;1.70;1.60;;;25.70;64.20;;;;;;5073434;28;20465;-56
2021/05/10 08:23:24;;;;;;;1.93;1.50;;;25.80;64.00;;;;;;5073150;28;20629;-56
2021/05/10 08:25:52;;;;;;;3.30;1.50;;;26.20;62.90;;;;;;5080985;28;20473;-56
2021/05/10 08:28:20;;;;;;;3.30;1.63;;;26.60;62.60;;;;;;5070574;28;20458;-56
2021/05/10 08:30:47;;;;;;;3.63;1.60;;;27.10;64.20;;;;;;5066120;28;20868;-56
2021/05/10 08:33:14;;;;;;;4.30;1.70;;;27.60;62.00;;;;;;5065595;28;20471;-56
2021/05/10 08:35:40;;;;;;;2.07;1.60;;;28.10;64.40;;;;;;5063698;28;20485;-56
2021/05/10 08:38:07;;;;;;;2.37;1.80;;;28.60;63.40;;;;;;5066470;28;21033;-58
2021/05/10 08:40:34;;;;;;;3.27;1.60;;;28.90;60.60;;;;;;5065889;28;20463;-58
2021/05/10 08:43:01;;;;;;;3.50;1.70;;;28.80;61.10;;;;;;5073081;28;20975;-56
2021/05/10 08:45:28;;;;;;;5.33;2.20;;;28.10;62.30;;;;;;5072724;28;20528;-56
2021/05/10 08:48:00;;;;;;;2.20;1.70;;;27.10;61.50;;;;;;5068308;28;20446;-55
2021/05/10 08:50:26;;;;;;;2.27;1.87;;;26.60;61.50;;;;;;5063254;28;20578;-56
2021/05/10 08:52:53;;;;;;;3.87;1.70;;;26.20;62.20;;;;;;5064442;28;20508;-56
2021/05/10 08:55:21;;;;;;;2.90;1.40;;;25.70;63.70;;;;;;5072589;28;20470;-56
2021/05/10 08:57:48;;;;;;;2.50;1.53;;;25.50;64.90;;;;;;5072780;28;20479;-56
2021/05/10 09:00:16;;;;;;;3.03;1.60;;;25.10;64.80;;;;;;5072826;28;21022;-56
2021/05/10 09:02:42;;;;;;;3.00;1.63;;;25.00;66.60;;;;;;5072037;28;20450;-56
2021/05/10 09:05:15;;;;;;;2.60;1.70;;;25.20;66.90;;;;;;5072813;28;20477;-57
2021/05/10 09:07:42;;;;;;;6.23;1.87;;;25.60;65.70;;;;;;5072581;28;20832;-57
2021/05/10 09:10:10;;;;;;;6.43;2.00;;;26.00;66.20;;;;;;5073063;28;20575;-57
2021/05/10 09:12:42;;;;;;;3.70;1.80;;;26.20;64.50;;;;;;5072358;28;20952;-57
2021/05/10 09:15:19;;;;;;;3.27;1.80;;;26.40;68.00;;;;;;5072004;28;21061;-57
2021/05/10 09:17:48;;;;;;;9.30;1.97;;;26.60;66.70;;;;;;5072864;28;20489;-57
2021/05/10 09:20:20;;;;;;;3.60;1.60;;;26.60;65.80;;;;;;5071805;28;20451;-57
2021/05/10 09:22:51;;;;;;;2.17;1.77;;;26.60;68.00;;;;;;5072238;28;20447;-57
2021/05/10 09:25:18;;;;;;;2.50;1.57;;;26.00;67.30;;;;;;5072075;28;20521;-57
2021/05/10 09:27:45;;;;;;;5.93;1.73;;;25.70;67.60;;;;;;5072445;28;20454;-57
2021/05/10 09:30:14;;;;;;;3.73;1.63;;;25.70;70.20;;;;;;5072877;28;20442;-57
2021/05/10 09:32:46;;;;;;;1.90;1.60;;;25.20;67.50;;;;;;5071974;28;21161;-57
2021/05/10 09:35:16;;;;;;;5.33;1.67;;;25.10;68.00;;;;;;5071378;28;20470;-57
2021/05/10 09:37:43;;;;;;;12.40;2.00;;;25.10;66.90;;;;;;5071544;28;20490;-57
2021/05/10 09:40:11;;;;;;;2.43;1.83;;;25.50;67.60;;;;;;5072216;28;20442;-57
2021/05/10 09:42:52;;;;;;;3.93;1.87;;;25.90;67.50;;;;;;5071724;28;20869;-57
2021/05/10 09:45:36;;;;;;;4.03;1.40;;;26.80;66.30;;;;;;5071910;28;20466;-57
2021/05/10 09:48:14;;;;;;;6.47;1.90;;;27.10;63.90;;;;;;5071822;28;20457;-57
2021/05/10 09:50:44;;;;;;;2.00;1.50;;;27.40;63.30;;;;;;5072034;28;20446;-56
2021/05/10 09:53:14;;;;;;;2.27;1.57;;;27.50;63.20;;;;;;5071414;28;20451;-57
2021/05/10 09:55:51;;;;;;;1.80;1.70;;;27.50;62.40;;;;;;5071834;28;20477;-57
2021/05/10 09:58:19;;;;;;;3.77;1.80;;;27.60;64.50;;;;;;5072090;28;20455;-57
2021/05/10 10:00:46;;;;;;;5.60;2.00;;;28.10;63.20;;;;;;5071601;28;20523;-56
2021/05/10 10:03:31;;;;;;;2.00;1.80;;;28.40;62.00;;;;;;5069287;28;20462;-56
2021/05/10 10:06:02;;;;;;;5.00;1.77;;;28.10;61.40;;;;;;5071281;28;20879;-56
2021/05/10 10:08:29;;;;;;;1.90;1.57;;;28.30;61.20;;;;;;5071467;28;20450;-57
2021/05/10 10:10:56;;;;;;;3.13;1.60;;;27.70;62.30;;;;;;5070825;28;20455;-57
2021/05/10 10:13:23;;;;;;;2.90;1.40;;;27.10;62.00;;;;;;5071473;28;20453;-56
2021/05/10 10:15:50;;;;;;;1.90;1.80;;;26.60;62.60;;;;;;5071121;28;20470;-56
2021/05/10 10:18:18;;;;;;;3.17;1.57;;;26.30;62.70;;;;;;5071303;28;20548;-56
2021/05/10 10:20:47;;;;;;;2.37;1.70;;;26.00;64.40;;;;;;5070876;28;20829;-56
2021/05/10 10:23:16;;;;;;;1.73;1.23;;;25.80;64.40;;;;;;5071180;28;20474;-56
2021/05/10 10:25:43;;;;;;;2.60;1.50;;;25.50;64.10;;;;;;5070491;28;20494;-56
2021/05/10 10:28:11;;;;;;;2.90;1.63;;;25.40;65.00;;;;;;5071245;28;20473;-56
2021/05/10 10:30:41;;;;;;;2.30;1.97;;;25.30;63.30;;;;;;5071440;28;20447;-56
2021/05/10 10:33:12;;;;;;;1.57;1.30;;;25.20;62.60;;;;;;5071143;28;20454;-56
2021/05/10 10:35:43;;;;;;;3.00;1.40;;;24.90;65.60;;;;;;5071064;28;20469;-56
2021/05/10 10:38:10;;;;;;;2.30;1.50;;;24.90;64.40;;;;;;5071301;28;20872;-56
2021/05/10 10:40:38;;;;;;;3.20;1.90;;;25.00;63.50;;;;;;5070761;28;20821;-56
2021/05/10 10:43:24;;;;;;;3.23;1.37;;;25.00;64.60;;;;;;5069154;28;20458;-56
2021/05/10 10:46:20;;;;;;;4.90;2.00;;;24.90;62.80;;;;;;5069563;28;20467;-56
2021/05/10 10:48:46;;;;;;;1.73;1.40;;;24.90;62.40;;;;;;5071366;28;20450;-57
2021/05/10 10:51:15;;;;;;;3.27;1.30;;;25.00;64.10;;;;;;5071106;28;20876;-56
2021/05/10 10:53:42;;;;;;;1.53;1.43;;;25.00;61.80;;;;;;5070814;28;20451;-56
2021/05/10 10:56:10;;;;;;;1.93;1.40;;;25.10;63.20;;;;;;5070583;28;20486;-56
2021/05/10 10:58:39;;;;;;;4.80;1.57;;;25.20;62.60;;;;;;5070373;28;20450;-56
2021/05/10 11:01:11;;;;;;;1.93;1.50;;;25.30;62.10;;;;;;5072269;28;20466;-57
2021/05/10 11:03:38;;;;;;;2.20;1.47;;;25.30;62.70;;;;;;5074729;28;20454;-56
2021/05/10 11:06:05;;;;;;;3.20;1.80;;;25.50;64.60;;;;;;5074732;28;20474;-56
2021/05/10 11:08:53;;;;;;;3.23;1.63;;;25.60;64.40;;;;;;5074971;28;20450;-57
2021/05/10 11:11:41;;;;;;;3.43;1.40;;;25.70;64.20;;;;;;5068583;28;20457;-56
2021/05/10 11:14:15;;;;;;;1.83;1.60;;;25.80;63.10;;;;;;5073789;28;20461;-56
2021/05/10 11:16:50;;;;;;;1.33;1.20;;;25.70;62.60;;;;;;5074024;28;20483;-57
2021/05/10 11:19:36;;;;;;;3.37;1.60;;;25.70;62.50;;;;;;5074200;28;20477;-56
2021/05/10 11:22:24;;;;;;;3.60;1.57;;;25.80;61.70;;;;;;5054846;28;20459;-57
2021/05/10 11:24:50;;;;;;;2.60;1.53;;;25.80;63.70;;;;;;5066010;28;20578;-57
2021/05/10 11:27:26;;;;;;;1.60;1.50;;;25.90;62.40;;;;;;5074472;28;20447;-57
2021/05/10 11:29:52;;;;;;;2.47;1.50;;;25.90;60.30;;;;;;5074281;28;20498;-57
2021/05/10 11:32:31;;;;;;;4.00;1.80;;;25.90;62.20;;;;;;5074147;28;20940;-57
2021/05/10 11:35:27;;;;;;;3.93;1.70;;;26.00;63.90;;;;;;5074414;28;20995;-57
2021/05/10 11:38:08;;;;;;;2.33;1.67;;;26.20;62.80;;;;;;5073838;28;20866;-57
2021/05/10 11:40:36;;;;;;;4.03;1.63;;;26.40;63.60;;;;;;5074304;28;20460;-59
2021/05/10 11:43:21;;;;;;;4.33;2.13;;;26.40;61.30;;;;;;5073865;28;20512;-57
2021/05/10 11:45:49;;;;;;;3.17;1.40;;;26.40;62.50;;;;;;5070693;28;20474;-57
2021/05/10 11:48:16;;;;;;;7.50;1.90;;;26.50;64.70;;;;;;5074039;28;20983;-57
2021/05/10 11:50:47;;;;;;;4.60;1.67;;;26.60;63.00;;;;;;5074225;28;20478;-57
2021/05/10 11:53:15;;;;;;;4.83;1.67;;;26.60;64.70;;;;;;5074306;28;20919;-57
2021/05/10 11:56:00;;;;;;;6.33;1.83;;;26.60;64.10;;;;;;5074037;28;20483;-56
2021/05/10 11:58:51;;;;;;;6.77;1.53;;;26.60;65.00;;;;;;5072722;28;20451;-56
2021/05/10 12:01:32;;;;;;;3.50;1.70;;;26.70;64.40;;;;;;5055485;28;20488;-57
2021/05/10 12:03:59;;;;;;;2.77;1.73;;;26.80;63.00;;;;;;5073091;28;20504;-56
2021/05/10 12:06:29;;;;;;;2.90;1.50;;;26.80;62.50;;;;;;5073580;28;20467;-57
2021/05/10 12:08:56;;;;;;;5.17;1.80;;;26.70;64.60;;;;;;5073060;28;20950;-56
2021/05/10 12:11:24;;;;;;;2.90;1.60;;;26.60;63.80;;;;;;5072583;28;20473;-57
2021/05/10 12:13:51;;;;;;;2.90;1.50;;;26.50;65.80;;;;;;5073554;28;20454;-57
2021/05/10 12:16:18;;;;;;;3.50;1.80;;;26.50;63.70;;;;;;5073211;28;20483;-57
2021/05/10 12:18:56;;;;;;;8.23;1.87;;;26.50;65.80;;;;;;5073550;28;20505;-56
2021/05/10 12:21:22;;;;;;;3.00;1.63;;;26.20;63.80;;;;;;5072950;28;20450;-57
2021/05/10 12:23:49;;;;;;;10.43;2.63;;;26.20;62.40;;;;;;5073433;28;20447;-56
2021/05/10 12:26:15;;;;;;;3.43;1.47;;;26.10;63.60;;;;;;5073288;28;20499;-56
2021/05/10 12:28:42;;;;;;;2.50;1.50;;;26.00;63.10;;;;;;5073267;28;20450;-57
2021/05/10 12:31:09;;;;;;;2.03;1.83;;;25.80;63.60;;;;;;5096531;22;20502;-53
2021/05/10 12:33:37;;;;;;;6.43;1.73;;;25.90;62.10;;;;;;5073415;28;20443;-52
2021/05/10 12:36:05;;;;;;;5.97;1.43;;;26.00;62.60;;;;;;5073249;28;20442;-53
2021/05/10 12:38:33;;;;;;;5.03;1.60;;;25.80;63.10;;;;;;5073183;28;21030;-52
2021/05/10 12:41:01;;;;;;;8.50;2.10;;;25.70;64.00;;;;;;5073284;28;20497;-53
2021/05/10 12:43:29;;;;;;;5.80;1.70;;;25.80;63.30;;;;;;5072382;28;20482;-52
2021/05/10 12:46:01;;;;;;;4.90;1.77;;;25.90;63.90;;;;;;5073074;28;20838;-53
2021/05/10 12:48:29;;;;;;;7.17;2.00;;;25.90;68.80;;;;;;5072479;28;20477;-52
2021/05/10 12:51:04;;;;;;;2.50;2.30;;;25.70;69.20;;;;;;5072873;28;20508;-52
2021/05/10 12:53:35;;;;;;;5.13;2.33;;;25.10;73.80;;;;;;5073544;28;20549;-52
2021/05/10 12:56:05;;;;;;;4.07;2.33;;;24.80;76.60;;;;;;5072764;28;20453;-52
2021/05/10 12:58:35;;;;;;;4.03;2.87;;;24.60;78.60;;;;;;5072608;28;20536;-52
2021/05/10 13:01:13;;;;;;;4.83;2.90;;;24.20;81.30;;;;;;5072890;28;20466;-51